Airfield :
LOGIN :

Register | Disclaimer

   EN    FR    IT 

 










Legend :    VFR   Marginal VFR   IFR   Intensive IFR   Very Intensive IFR
Visi :
Ceiling :
>= 8 km
>= 3000ft
5 to 8 km
1000 to 3000 ft
1500m to 5 km
500 to 1000 ft
800 to 1500m
200 to 500 ft
< 800m
< 200 ft
Symbols :   Thunderstorms  Fog  Heavy snow  Heavy precipitations  Wind > 20 kt
SIGMETs :     Misc.  Thunderstorms  Icing  Turbulence  Mountain Waves  Volcanic Ashes






- Airport Elevation : 1276 ft
- IATA code : STR


EDDS - Stuttgart

CURRENT METAR :
  • 192320Z 31004KT 9000 FEW001 SCT006 BKN047 01/01 Q1018

EXPIRED METARs :
  • 192250Z VRB01KT 9999 FEW001 SCT008 BKN047 02/01 Q1018
  • 192220Z VRB02KT 9999 FEW001 BKN008 02/02 Q1018
  • 192150Z 32005KT 9999 FEW001 BKN008 02/01 Q1018
  • 192120Z 31006KT 9999 FEW001 BKN011 01/00 Q1018
  • 192050Z 29004KT 9999 FEW001 SCT010 BKN043 01/00 Q1018 TEMPO BKN010

TAF TAF EDDS
Valid from the 20 at 00:00 until the 21 at 00:00 UTC


192300Z 2000/2024 VRB03KT 8000 SCT010
TEMPO 2000/2024 4000 BCFG BKN005
PROB30
TEMPO 2000/2011 0400 FZFG VV001
PROB30
TEMPO 2022/2024 0400 FZFG VV001



MET'MAP, your aeronautical weather chart ! - Copyright ORBIFLY December 2007 - Disclaimer

ORBIFLY MET'MAP TEAM :

Programming & Development : Alexandra Zaïnal
Concept & Development : Baudouin d'Aumeries
Co-Development & Prog : Marc-Olivier Méhu
Technical & hardware support : Manuel Goepfert

Contact : metmap@orbifly.com




SOURCES & CREDITS :

   NOAA